Terminal Aerodrome Forecast
Issued by NWS Sterling, VA

Current Version | Previous Version | Graphics & Text | Print | Product List | Glossary On
Versions: 1 2 3 4 5 6 7 8 9 10 11 12 13 14 15 16 17 18 19 20 21 22
000
FTUS41 KLWX 182002 AAA
TAFIAD
TAF AMD
KIAD 182002Z 1820/1924 18004KT P6SM VCTS SCT050CB
      TEMPO 1820/1822 VRB15KT 3SM TSRA OVC050CB
     FM190000 VRB03KT P6SM SCT050
     FM190900 00000KT 6SM BR FEW050 FEW200
     FM191200 00000KT P6SM SCT050=

USA.gov is the U.S. government's official web portal to all federal, state and local government web resources and services.